createdAt,value
2022-12-18T00:02:14.291Z,100575.88
2022-12-18T00:04:40.944Z,100574.56
2022-12-18T00:07:07.549Z,100573.63
2022-12-18T00:09:39.475Z,100577.81
2022-12-18T00:14:45.245Z,100562.63
2022-12-18T00:17:12.123Z,100565.59
2022-12-18T00:19:38.629Z,100561.66
2022-12-18T00:22:06.064Z,100561.81
2022-12-18T00:24:32.795Z,100567.97
2022-12-18T00:26:59.334Z,100565.91
2022-12-18T00:29:25.860Z,100579.75
2022-12-18T00:31:52.622Z,100583.06
2022-12-18T00:34:19.178Z,100570.13
2022-12-18T00:36:48.658Z,100575.31
2022-12-18T00:39:15.352Z,100571.91
2022-12-18T00:42:00.480Z,100566.38
2022-12-18T00:44:27.183Z,100568.97
2022-12-18T00:46:53.828Z,100566.25
2022-12-18T00:49:20.836Z,100568.72
2022-12-18T00:51:48.589Z,100563.25
2022-12-18T00:54:15.821Z,100563.16
2022-12-18T00:56:50.076Z,100564.81
2022-12-18T00:59:19.694Z,100566.97
2022-12-18T01:01:47.037Z,100566.41
2022-12-18T01:04:14.265Z,100569.81
2022-12-18T01:06:41.328Z,100567.28
2022-12-18T01:09:07.818Z,100572.19
2022-12-18T01:11:34.385Z,100572.94
2022-12-18T01:14:01.172Z,100577.19
2022-12-18T01:16:28.053Z,100579.53
2022-12-18T01:18:55.872Z,100569.34
2022-12-18T01:21:23.639Z,100586.66
2022-12-18T01:23:54.929Z,100585.75
2022-12-18T01:26:21.791Z,100578.63
2022-12-18T01:28:48.871Z,100581.75
2022-12-18T01:31:28.886Z,100586.63
2022-12-18T01:33:56.248Z,100586.91
2022-12-18T01:36:26.159Z,100594.25
2022-12-18T01:38:53.303Z,100597.19
2022-12-18T01:41:23.520Z,100591.75
2022-12-18T01:43:58.779Z,100589.25
2022-12-18T01:46:28.441Z,100591.81
2022-12-18T01:48:58.654Z,100595.59
2022-12-18T01:51:26.662Z,100593.69
2022-12-18T01:53:53.397Z,100593.03
2022-12-18T01:56:21.958Z,100597.88
2022-12-18T01:58:57.352Z,100596.16
2022-12-18T02:04:20.881Z,100599.56
2022-12-18T02:06:51.880Z,100600.72
2022-12-18T02:09:24.384Z,100596.91
2022-12-18T02:11:57.375Z,100596.84
2022-12-18T02:14:42.732Z,100609.44
2022-12-18T02:17:13.448Z,100599.66
2022-12-18T02:19:58.769Z,100603.06
2022-12-18T02:22:56.348Z,100607.38
2022-12-18T02:25:41.344Z,100612.66
2022-12-18T02:28:12.601Z,100613.06
2022-12-18T02:30:40.889Z,100610.94
2022-12-18T02:33:10.816Z,100609.97
2022-12-18T02:35:37.909Z,100620.66
2022-12-18T02:38:05.389Z,100619.75
2022-12-18T02:40:32.898Z,100618.50
2022-12-18T02:43:14.869Z,100623.91
2022-12-18T02:45:50.726Z,100627.09
2022-12-18T02:48:20.127Z,100630.81
2022-12-18T02:50:55.661Z,100628.88
2022-12-18T02:53:38.481Z,100629.47
2022-12-18T02:56:21.146Z,100631.44
2022-12-18T02:59:19.925Z,100630.84
2022-12-18T03:02:17.061Z,100627.88
2022-12-18T03:05:01.822Z,100634.50
2022-12-18T03:07:46.543Z,100636.13
2022-12-18T03:10:22.187Z,100641.69
2022-12-18T03:13:01.836Z,100643.66
2022-12-18T03:15:56.492Z,100634.00
2022-12-18T03:18:28.299Z,100632.63
2022-12-18T03:20:57.680Z,100639.06
2022-12-18T03:23:29.275Z,100628.72
2022-12-18T03:26:05.873Z,100627.88
2022-12-18T03:28:38.309Z,100625.31
2022-12-18T03:31:08.132Z,100629.97
2022-12-18T03:33:47.425Z,100634.50
2022-12-18T03:36:15.023Z,100627.78
2022-12-18T03:38:41.727Z,100631.41
2022-12-18T03:41:20.960Z,100620.94
2022-12-18T03:43:58.239Z,100619.84
2022-12-18T03:46:45.000Z,100612.31
2022-12-18T03:49:18.062Z,100618.72
2022-12-18T03:51:51.424Z,100617.72
2022-12-18T03:54:19.047Z,100613.34
2022-12-18T03:56:50.307Z,100613.25
2022-12-18T03:59:18.338Z,100612.59
2022-12-18T04:01:50.296Z,100616.69
2022-12-18T04:04:18.797Z,100610.63
2022-12-18T04:06:47.921Z,100613.34
2022-12-18T04:09:15.112Z,100610.47
2022-12-18T04:11:44.797Z,100609.28
2022-12-18T04:14:17.601Z,100614.91
2022-12-18T04:16:45.155Z,100617.84
2022-12-18T04:19:11.658Z,100618.72
2022-12-18T04:21:38.334Z,100619.72
2022-12-18T04:24:04.995Z,100622.69
2022-12-18T04:26:31.480Z,100619.97
2022-12-18T04:28:58.083Z,100626.69
2022-12-18T04:31:24.743Z,100625.66
2022-12-18T04:33:51.294Z,100638.94
2022-12-18T04:36:17.872Z,100627.44
2022-12-18T04:38:44.652Z,100625.19
2022-12-18T04:41:13.779Z,100628.81
2022-12-18T04:43:40.736Z,100628.13
2022-12-18T04:46:09.005Z,100622.97
2022-12-18T04:48:38.016Z,100633.44
2022-12-18T04:51:06.102Z,100632.91
2022-12-18T04:53:32.842Z,100632.31
2022-12-18T04:56:14.399Z,100633.53
2022-12-18T04:58:42.470Z,100628.16
2022-12-18T05:01:09.894Z,100634.06
2022-12-18T05:03:38.311Z,100640.69
2022-12-18T05:06:06.688Z,100637.06
2022-12-18T05:08:34.045Z,100633.38
2022-12-18T05:11:09.103Z,100632.91
2022-12-18T05:13:36.827Z,100640.56
2022-12-18T05:16:03.956Z,100634.47
2022-12-18T05:18:32.034Z,100640.44
2022-12-18T05:20:58.674Z,100632.88
2022-12-18T05:23:25.842Z,100651.44
2022-12-18T05:25:54.956Z,100645.72
2022-12-18T05:28:22.920Z,100654.75
2022-12-18T05:30:55.840Z,100661.84
2022-12-18T05:33:24.082Z,100662.22
2022-12-18T05:35:55.465Z,100649.59
2022-12-18T05:38:23.557Z,100659.41
2022-12-18T05:40:50.861Z,100655.22
2022-12-18T05:43:21.330Z,100657.63
2022-12-18T05:45:49.175Z,100669.94
2022-12-18T05:48:16.257Z,100663.78
2022-12-18T05:50:46.520Z,100673.81
2022-12-18T05:53:14.863Z,100676.91
2022-12-18T05:55:42.346Z,100682.63
2022-12-18T05:58:10.173Z,100681.44
2022-12-18T06:00:40.938Z,100675.84
2022-12-18T06:03:09.006Z,100682.06
2022-12-18T06:05:40.519Z,100692.66
2022-12-18T06:08:07.502Z,100690.59
2022-12-18T06:10:35.704Z,100688.03
2022-12-18T06:13:02.419Z,100689.47
2022-12-18T06:15:29.100Z,100699.75
2022-12-18T06:17:55.625Z,100693.34
2022-12-18T06:20:22.979Z,100705.81
2022-12-18T06:22:49.867Z,100700.38
2022-12-18T06:25:16.536Z,100695.84
2022-12-18T06:27:43.216Z,100704.31
2022-12-18T06:30:11.119Z,100709.31
2022-12-18T06:32:37.821Z,100722.84
2022-12-18T06:35:04.960Z,100715.38
2022-12-18T06:37:32.620Z,100714.28
2022-12-18T06:39:59.249Z,100710.94
2022-12-18T06:42:26.176Z,100715.09
2022-12-18T06:44:53.012Z,100722.78
2022-12-18T06:47:19.807Z,100721.56
2022-12-18T06:49:46.456Z,100715.09
2022-12-18T06:52:13.060Z,100721.06
2022-12-18T06:54:39.543Z,100726.34
2022-12-18T06:57:06.103Z,100727.19
2022-12-18T06:59:32.759Z,100731.91
2022-12-18T07:01:59.409Z,100728.34
2022-12-18T07:04:32.878Z,100726.09
2022-12-18T07:06:59.501Z,100734.84
2022-12-18T07:09:26.504Z,100730.16
2022-12-18T07:11:53.580Z,100739.41
2022-12-18T07:14:20.340Z,100734.75
2022-12-18T07:16:47.802Z,100745.69
2022-12-18T07:19:14.461Z,100742.53
2022-12-18T07:21:41.542Z,100743.75
2022-12-18T07:24:08.399Z,100749.78
2022-12-18T07:26:35.006Z,100742.13
2022-12-18T07:29:01.624Z,100746.56
2022-12-18T07:31:28.376Z,100750.19
2022-12-18T07:33:55.566Z,100746.38
2022-12-18T07:36:25.144Z,100743.28
2022-12-18T07:38:53.437Z,100745.34
2022-12-18T07:41:20.352Z,100745.19
2022-12-18T07:43:47.544Z,100741.69
2022-12-18T07:46:15.524Z,100744.97
2022-12-18T07:48:49.931Z,100754.81
2022-12-18T07:51:18.345Z,100763.53
2022-12-18T07:53:45.406Z,100760.34
2022-12-18T07:56:30.422Z,100753.00
2022-12-18T07:58:58.104Z,100751.16
2022-12-18T08:01:25.336Z,100758.34
2022-12-18T08:03:52.434Z,100746.69
2022-12-18T08:06:22.743Z,100750.13
2022-12-18T08:08:52.354Z,100755.31
2022-12-18T08:11:18.849Z,100748.63
2022-12-18T08:13:46.468Z,100745.50
2022-12-18T08:16:13.094Z,100742.16
2022-12-18T08:18:39.633Z,100753.94
2022-12-18T08:21:10.999Z,100750.75
2022-12-18T08:23:42.278Z,100744.66
2022-12-18T08:26:10.865Z,100751.22
2022-12-18T08:28:37.464Z,100746.09
2022-12-18T08:31:04.967Z,100741.00
2022-12-18T08:33:31.813Z,100747.31
2022-12-18T08:35:59.496Z,100747.00
2022-12-18T08:38:26.096Z,100748.34
2022-12-18T08:41:06.503Z,100741.66
2022-12-18T08:43:51.971Z,100749.81
2022-12-18T08:46:23.411Z,100743.97
2022-12-18T08:48:51.434Z,100759.16
2022-12-18T08:51:18.440Z,100752.16
2022-12-18T08:53:46.067Z,100749.56
2022-12-18T08:56:13.536Z,100747.44
2022-12-18T08:58:40.448Z,100748.16
2022-12-18T09:01:10.253Z,100747.31
2022-12-18T09:03:37.623Z,100755.69
2022-12-18T09:06:04.547Z,100748.44
2022-12-18T09:08:31.139Z,100750.75
2022-12-18T09:10:57.776Z,100756.38
2022-12-18T09:13:25.083Z,100750.06
2022-12-18T09:15:54.095Z,100760.28
2022-12-18T09:18:22.206Z,100763.78
2022-12-18T09:20:48.949Z,100767.81
2022-12-18T09:23:15.864Z,100770.13
2022-12-18T09:25:42.559Z,100764.38
2022-12-18T09:28:17.193Z,100760.81
2022-12-18T09:30:46.936Z,100775.28
2022-12-18T09:33:14.687Z,100778.34
2022-12-18T09:35:42.885Z,100778.63
2022-12-18T09:38:13.636Z,100781.78
2022-12-18T09:40:46.162Z,100773.81
2022-12-18T09:43:43.276Z,100785.25
2022-12-18T09:46:17.160Z,100787.25
2022-12-18T09:48:47.412Z,100782.59
2022-12-18T09:51:20.772Z,100777.41
2022-12-18T09:54:17.572Z,100764.94
2022-12-18T09:56:44.931Z,100772.69
2022-12-18T09:59:22.338Z,100768.88
2022-12-18T10:01:49.061Z,100762.91
2022-12-18T10:04:16.042Z,100764.03
2022-12-18T10:07:09.448Z,100766.25
2022-12-18T10:10:04.069Z,100761.16
2022-12-18T10:12:45.841Z,100755.75
2022-12-18T10:15:44.559Z,100760.56
2022-12-18T10:18:42.513Z,100756.03
2022-12-18T10:21:18.823Z,100755.59
2022-12-18T10:24:14.924Z,100754.41
2022-12-18T10:26:42.854Z,100740.59
2022-12-18T10:29:15.477Z,100744.78
2022-12-18T10:31:42.223Z,100741.00
2022-12-18T10:34:16.085Z,100740.44
2022-12-18T10:36:43.482Z,100741.22
2022-12-18T10:39:24.661Z,100733.22
2022-12-18T10:41:51.362Z,100736.38
2022-12-18T10:44:27.465Z,100742.66
2022-12-18T10:47:10.190Z,100736.66
2022-12-18T10:49:43.365Z,100738.47
2022-12-18T10:52:18.996Z,100742.69
2022-12-18T10:54:59.360Z,100747.13
2022-12-18T10:57:33.600Z,100733.28
2022-12-18T11:00:02.479Z,100724.75
2022-12-18T11:02:38.936Z,100714.38
2022-12-18T11:05:26.419Z,100709.63
2022-12-18T11:07:55.077Z,100700.81
2022-12-18T11:10:26.267Z,100711.06
2022-12-18T11:12:53.235Z,100712.94
2022-12-18T11:15:30.837Z,100700.94
2022-12-18T11:17:57.637Z,100712.75
2022-12-18T11:20:28.259Z,100703.50
2022-12-18T11:23:00.854Z,100700.47
2022-12-18T11:25:33.274Z,100704.00
2022-12-18T11:28:03.797Z,100694.78
2022-12-18T11:30:31.465Z,100700.53
2022-12-18T11:33:07.485Z,100694.00
2022-12-18T11:35:46.587Z,100680.91
2022-12-18T11:38:13.216Z,100678.63
2022-12-18T11:40:44.897Z,100677.75
2022-12-18T11:43:19.999Z,100678.53
2022-12-18T11:45:54.129Z,100685.72
2022-12-18T11:48:28.690Z,100678.03
2022-12-18T11:50:57.821Z,100674.75
2022-12-18T11:53:26.583Z,100674.56
2022-12-18T11:56:18.560Z,100661.94
2022-12-18T11:59:34.024Z,100654.00
2022-12-18T12:02:13.090Z,100647.53
2022-12-18T12:04:49.086Z,100645.25
2022-12-18T12:07:39.906Z,100638.03
2022-12-18T12:10:46.652Z,100644.34
2022-12-18T12:13:54.716Z,100644.03
2022-12-18T12:17:07.351Z,100640.03
2022-12-18T12:19:38.486Z,100632.03
2022-12-18T12:22:16.821Z,100622.56
2022-12-18T12:24:52.866Z,100632.31
2022-12-18T12:27:24.253Z,100631.06
2022-12-18T12:29:50.711Z,100627.00
2022-12-18T12:32:36.313Z,100624.56
2022-12-18T12:35:21.199Z,100623.75
2022-12-18T12:38:00.997Z,100619.97
2022-12-18T12:43:22.761Z,100591.84
2022-12-18T12:46:09.966Z,100590.84
2022-12-18T12:48:43.609Z,100590.34
2022-12-18T12:51:35.685Z,100590.50
2022-12-18T12:54:05.448Z,100582.94
2022-12-18T12:56:51.971Z,100585.19
2022-12-18T12:59:30.457Z,100589.19
2022-12-18T13:02:06.132Z,100583.59
2022-12-18T13:04:42.167Z,100579.81
2022-12-18T13:07:18.954Z,100574.28
2022-12-18T13:10:25.702Z,100571.47
2022-12-18T13:16:09.157Z,100573.41
2022-12-18T13:18:36.311Z,100582.34
2022-12-18T13:21:42.568Z,100583.69
2022-12-18T13:24:36.735Z,100575.69
2022-12-18T13:27:41.561Z,100573.50
2022-12-18T13:30:33.906Z,100567.44
2022-12-18T13:33:16.260Z,100559.72
2022-12-18T13:35:48.688Z,100559.88
2022-12-18T13:38:37.044Z,100558.38
2022-12-18T13:41:16.212Z,100551.28
2022-12-18T13:43:46.996Z,100551.50
2022-12-18T13:46:21.132Z,100548.38
2022-12-18T13:48:54.895Z,100549.84
2022-12-18T13:51:22.490Z,100546.22
2022-12-18T13:54:06.574Z,100530.56
2022-12-18T13:56:35.319Z,100530.66
2022-12-18T13:59:14.465Z,100531.00
2022-12-18T14:01:46.568Z,100538.31
2022-12-18T14:04:20.969Z,100533.88
2022-12-18T14:06:48.696Z,100529.41
2022-12-18T14:09:25.301Z,100516.63
2022-12-18T14:11:53.258Z,100520.47
2022-12-18T14:14:20.528Z,100515.97
2022-12-18T14:16:48.460Z,100519.84
2022-12-18T14:19:19.295Z,100521.38
2022-12-18T14:21:50.798Z,100522.59
2022-12-18T14:24:22.496Z,100530.88
2022-12-18T14:26:51.174Z,100530.59
2022-12-18T14:29:29.784Z,100531.72
2022-12-18T14:32:19.290Z,100537.06
2022-12-18T14:34:52.647Z,100540.06
2022-12-18T14:37:24.050Z,100543.50
2022-12-18T14:40:08.654Z,100541.03
2022-12-18T14:42:35.470Z,100535.28
2022-12-18T14:45:40.978Z,100532.09
2022-12-18T14:48:23.028Z,100522.00
2022-12-18T14:51:01.852Z,100524.28
2022-12-18T14:53:33.403Z,100529.16
2022-12-18T14:56:00.053Z,100517.06
2022-12-18T14:58:26.932Z,100516.59
2022-12-18T15:00:54.559Z,100507.63
2022-12-18T15:03:22.793Z,100506.78
2022-12-18T15:05:49.799Z,100512.19
2022-12-18T15:08:39.715Z,100525.13
2022-12-18T15:11:26.051Z,100536.78
2022-12-18T15:13:52.869Z,100539.22
2022-12-18T15:16:19.605Z,100548.50
2022-12-18T15:18:49.061Z,100530.88
2022-12-18T15:21:19.611Z,100529.34
2022-12-18T15:23:47.774Z,100536.03
2022-12-18T15:26:16.768Z,100545.50
2022-12-18T15:28:51.041Z,100543.63
2022-12-18T15:31:18.037Z,100546.13
2022-12-18T15:33:53.988Z,100551.25
2022-12-18T15:36:26.571Z,100555.00
2022-12-18T15:38:58.916Z,100562.34
2022-12-18T15:41:35.851Z,100555.50
2022-12-18T15:44:03.888Z,100566.81
2022-12-18T15:46:31.932Z,100584.72
2022-12-18T15:49:02.120Z,100567.63
2022-12-18T15:51:34.338Z,100554.94
2022-12-18T15:54:04.861Z,100557.25
2022-12-18T15:56:50.594Z,100540.06
2022-12-18T15:59:20.063Z,100550.06
2022-12-18T16:01:49.113Z,100543.38
2022-12-18T16:04:17.773Z,100538.88
2022-12-18T16:07:13.456Z,100535.22
2022-12-18T16:09:31.193Z,100554.84
2022-12-18T16:12:01.079Z,100579.97
2022-12-18T16:14:29.779Z,100582.41
2022-12-18T16:16:58.715Z,100593.16
2022-12-18T16:19:26.028Z,100594.03
2022-12-18T16:21:55.810Z,100589.94
2022-12-18T16:24:25.339Z,100578.84
2022-12-18T16:26:53.180Z,100576.06
2022-12-18T16:29:27.907Z,100587.00
2022-12-18T16:31:58.048Z,100579.00
2022-12-18T16:34:29.789Z,100589.25
2022-12-18T16:37:01.677Z,100588.81
2022-12-18T16:39:31.914Z,100589.47
2022-12-18T16:41:58.514Z,100596.81
2022-12-18T16:44:26.033Z,100595.34
2022-12-18T16:46:52.749Z,100592.69
2022-12-18T16:49:20.411Z,100597.81
2022-12-18T16:51:47.499Z,100595.06
2022-12-18T16:54:18.892Z,100585.38
2022-12-18T16:56:49.770Z,100582.69
2022-12-18T16:59:16.716Z,100586.88
2022-12-18T17:01:44.490Z,100584.72
2022-12-18T17:04:11.554Z,100588.25
2022-12-18T17:06:44.443Z,100593.38
2022-12-18T17:09:14.539Z,100582.59
2022-12-18T17:11:41.132Z,100583.56
2022-12-18T17:14:14.462Z,100595.69
2022-12-18T17:16:41.348Z,100581.31
2022-12-18T17:19:10.961Z,100589.84
2022-12-18T17:21:42.042Z,100582.50
2022-12-18T17:24:09.230Z,100580.78
2022-12-18T17:26:35.758Z,100571.56
2022-12-18T17:29:02.676Z,100569.25
2022-12-18T17:31:30.635Z,100566.78
2022-12-18T17:33:58.083Z,100570.50
2022-12-18T17:36:28.617Z,100565.44
2022-12-18T17:39:00.242Z,100579.97
2022-12-18T17:41:28.879Z,100567.47
2022-12-18T17:43:57.702Z,100572.84
2022-12-18T17:46:25.896Z,100581.34
2022-12-18T17:48:54.958Z,100576.44
2022-12-18T17:51:21.637Z,100581.34
2022-12-18T17:53:48.596Z,100585.59
2022-12-18T17:56:17.515Z,100581.78
2022-12-18T17:58:44.693Z,100589.69
2022-12-18T18:01:17.545Z,100595.53
2022-12-18T18:03:46.016Z,100596.47
2022-12-18T18:06:15.523Z,100601.63
2022-12-18T18:08:42.394Z,100604.78
2022-12-18T18:11:31.767Z,100601.72
2022-12-18T18:14:02.091Z,100595.41
2022-12-18T18:16:29.941Z,100586.91
2022-12-18T18:19:05.665Z,100590.00
2022-12-18T18:21:32.981Z,100588.03
2022-12-18T18:24:02.162Z,100575.03
2022-12-18T18:26:31.513Z,100575.25
2022-12-18T18:28:59.661Z,100572.63
2022-12-18T18:31:30.045Z,100573.50
2022-12-18T18:33:57.467Z,100577.34
2022-12-18T18:36:24.736Z,100570.91
2022-12-18T18:38:52.049Z,100569.41
2022-12-18T18:41:19.259Z,100571.88
2022-12-18T18:43:46.336Z,100564.84
2022-12-18T18:46:15.100Z,100570.34
2022-12-18T18:48:42.495Z,100565.19
2022-12-18T18:51:20.325Z,100569.19
2022-12-18T18:53:50.098Z,100576.00
2022-12-18T18:59:05.236Z,100566.47
2022-12-18T19:01:32.417Z,100563.69
2022-12-18T19:03:59.104Z,100563.22
2022-12-18T19:06:28.002Z,100572.50
2022-12-18T19:08:55.956Z,100581.69
2022-12-18T19:11:42.544Z,100573.38
2022-12-18T19:14:11.747Z,100575.00
2022-12-18T19:16:39.057Z,100576.22
2022-12-18T19:19:06.591Z,100571.06
2022-12-18T19:21:34.792Z,100561.53
2022-12-18T19:24:02.766Z,100561.19
2022-12-18T19:26:30.311Z,100558.53
2022-12-18T19:29:05.790Z,100544.41
2022-12-18T19:31:36.152Z,100541.72
2022-12-18T19:34:04.913Z,100534.97
2022-12-18T19:36:32.888Z,100539.00
2022-12-18T19:39:01.753Z,100536.44
2022-12-18T19:41:31.341Z,100532.50
2022-12-18T19:44:00.120Z,100521.47
2022-12-18T19:46:28.873Z,100524.66
2022-12-18T19:48:55.367Z,100533.88
2022-12-18T19:51:27.633Z,100527.25
2022-12-18T19:53:58.756Z,100530.34
2022-12-18T19:56:27.751Z,100551.94
2022-12-18T19:58:54.940Z,100554.53
2022-12-18T20:01:24.121Z,100552.38
2022-12-18T20:03:52.735Z,100553.44
2022-12-18T20:06:25.742Z,100556.50
2022-12-18T20:08:53.979Z,100557.03
2022-12-18T20:11:24.473Z,100555.22
2022-12-18T20:13:51.042Z,100567.31
2022-12-18T20:16:17.750Z,100556.75
2022-12-18T20:18:44.289Z,100556.19
2022-12-18T20:21:13.870Z,100557.44
2022-12-18T20:23:41.575Z,100556.53
2022-12-18T20:26:08.616Z,100556.19
2022-12-18T20:28:35.617Z,100553.91
2022-12-18T20:31:04.691Z,100556.94
2022-12-18T20:33:31.561Z,100563.97
2022-12-18T20:36:06.873Z,100563.66
2022-12-18T20:38:35.271Z,100559.53
2022-12-18T20:41:06.520Z,100557.72
2022-12-18T20:43:33.194Z,100564.06
2022-12-18T20:46:05.495Z,100565.41
2022-12-18T20:48:32.726Z,100559.16
2022-12-18T20:51:05.834Z,100571.44
2022-12-18T20:53:35.664Z,100562.91
2022-12-18T20:56:09.861Z,100564.28
2022-12-18T20:58:36.705Z,100577.13
2022-12-18T21:01:11.980Z,100565.91
2022-12-18T21:03:43.658Z,100569.31
2022-12-18T21:06:10.756Z,100563.97
2022-12-18T21:08:38.159Z,100567.53
2022-12-18T21:11:55.492Z,100567.53
2022-12-18T21:14:25.676Z,100556.06
2022-12-18T21:16:55.396Z,100556.59
2022-12-18T21:19:25.468Z,100546.16
2022-12-18T21:21:53.777Z,100548.09
2022-12-18T21:24:20.358Z,100553.06
2022-12-18T21:26:48.398Z,100552.00
2022-12-18T21:29:17.845Z,100546.06
2022-12-18T21:31:45.476Z,100558.13
2022-12-18T21:34:21.373Z,100558.13
2022-12-18T21:36:48.479Z,100556.00
2022-12-18T21:39:16.661Z,100560.16
2022-12-18T21:42:02.310Z,100562.69
2022-12-18T21:44:29.584Z,100575.84
2022-12-18T21:47:02.441Z,100597.84
2022-12-18T21:49:36.141Z,100597.00
2022-12-18T21:52:02.723Z,100601.84
2022-12-18T21:54:30.001Z,100601.44
2022-12-18T21:56:59.360Z,100598.22
2022-12-18T21:59:33.391Z,100592.06
2022-12-18T22:02:03.056Z,100595.66
2022-12-18T22:04:29.884Z,100595.66
2022-12-18T22:06:56.476Z,100605.47
2022-12-18T22:09:24.781Z,100608.53
2022-12-18T22:11:52.124Z,100589.34
2022-12-18T22:14:18.837Z,100587.22
2022-12-18T22:16:45.661Z,100594.00
2022-12-18T22:19:14.815Z,100598.44
2022-12-18T22:21:45.855Z,100594.19
2022-12-18T22:24:14.899Z,100596.97
2022-12-18T22:26:41.816Z,100597.78
2022-12-18T22:29:35.896Z,100598.53
2022-12-18T22:32:03.429Z,100613.16
2022-12-18T22:34:34.213Z,100611.47
2022-12-18T22:37:03.102Z,100595.59
2022-12-18T22:39:30.258Z,100590.13
2022-12-18T22:41:57.831Z,100582.94
2022-12-18T22:44:26.021Z,100591.28
2022-12-18T22:47:03.534Z,100599.22
2022-12-18T22:49:32.650Z,100603.59
2022-12-18T22:52:01.360Z,100590.44
2022-12-18T22:54:27.871Z,100590.44
2022-12-18T22:56:54.425Z,100594.66
2022-12-18T22:59:22.947Z,100593.41
2022-12-18T23:01:52.925Z,100589.72
2022-12-18T23:04:31.990Z,100594.41
2022-12-18T23:07:03.338Z,100598.53
2022-12-18T23:09:29.992Z,100593.16
2022-12-18T23:11:56.513Z,100579.91
2022-12-18T23:14:23.034Z,100591.75
2022-12-18T23:16:49.693Z,100590.00
2022-12-18T23:19:18.841Z,100588.09
2022-12-18T23:21:45.351Z,100576.66
2022-12-18T23:24:12.222Z,100570.50
2022-12-18T23:26:38.966Z,100568.78
2022-12-18T23:29:06.000Z,100573.34
2022-12-18T23:31:35.136Z,100574.78
2022-12-18T23:34:03.363Z,100578.41
2022-12-18T23:36:31.120Z,100575.16
2022-12-18T23:39:11.881Z,100574.56
2022-12-18T23:41:41.924Z,100573.13
2022-12-18T23:44:10.076Z,100584.25
2022-12-18T23:46:37.712Z,100578.28
2022-12-18T23:49:05.861Z,100578.25
2022-12-18T23:51:33.391Z,100583.78
2022-12-18T23:54:02.367Z,100577.91
2022-12-18T23:56:30.387Z,100567.34
2022-12-18T23:58:57.391Z,100569.31
